Terminal Aerodrome Forecast
Issued by NWS

Home | Current Version | Previous Version | Text Only | Print | Product List | Glossary Off
Versions: 1 2 3 4 5 6 7 8 9 10 11 12 13

000
FTUS43 KGRB 031729
TAFCWA
TAF
KCWA 031729Z 0318/0418 27012G25KT P6SM SCT060 BKN100
     FM032000 27015G24KT P6SM VCSH BKN050
      TEMPO 0321/0401 3SM -TSRA BKN040CB
     FM040100 29006KT P6SM VCSH SCT040 BKN100
     FM040600 34009KT P6SM SCT040
     FM041300 35014G22KT P6SM BKN035=

USA.gov is the U.S. government's official web portal to all federal, state and local government web resources and services.